createdAt,value
2022-10-04T00:01:09.782Z,99114.77
2022-10-04T00:03:45.249Z,99117.61
2022-10-04T00:06:26.343Z,99116.15
2022-10-04T00:09:25.318Z,99116.70
2022-10-04T00:11:56.050Z,99118.69
2022-10-04T00:14:32.458Z,99117.80
2022-10-04T00:17:11.046Z,99115.86
2022-10-04T00:19:48.251Z,99113.20
2022-10-04T00:22:24.782Z,99112.52
2022-10-04T00:25:18.303Z,99112.34
2022-10-04T00:28:21.116Z,99111.65
2022-10-04T00:31:26.582Z,99109.53
2022-10-04T00:34:03.775Z,99109.20
2022-10-04T00:36:32.473Z,99105.73
2022-10-04T00:39:06.878Z,99105.53
2022-10-04T00:41:47.352Z,99105.77
2022-10-04T00:44:42.966Z,99100.27
2022-10-04T00:47:31.965Z,99099.67
2022-10-04T00:50:29.023Z,99099.82
2022-10-04T00:52:59.521Z,99099.92
2022-10-04T00:55:51.277Z,99094.85
2022-10-04T00:58:26.714Z,99099.20
2022-10-04T01:00:57.802Z,99099.21
2022-10-04T01:03:41.478Z,99100.22
2022-10-04T01:06:13.752Z,99100.41
2022-10-04T01:08:49.708Z,99097.91
2022-10-04T01:12:05.882Z,99101.67
2022-10-04T01:14:53.264Z,99097.54
2022-10-04T01:17:22.625Z,99100.46
2022-10-04T01:19:53.421Z,99097.59
2022-10-04T01:22:43.260Z,99099.81
2022-10-04T01:25:45.173Z,99095.34
2022-10-04T01:28:14.388Z,99099.77
2022-10-04T01:30:44.295Z,99099.94
2022-10-04T01:33:13.578Z,99103.67
2022-10-04T01:35:41.863Z,99101.38
2022-10-04T01:38:11.501Z,99103.46
2022-10-04T01:40:57.395Z,99102.37
2022-10-04T01:43:32.361Z,99102.56
2022-10-04T01:46:07.489Z,99097.11
2022-10-04T01:48:38.292Z,99095.75
2022-10-04T01:51:16.695Z,99095.02
2022-10-04T01:53:56.176Z,99096.73
2022-10-04T01:56:30.053Z,99096.54
2022-10-04T01:59:06.197Z,99098.83
2022-10-04T02:01:39.036Z,99098.63
2022-10-04T02:04:22.784Z,99093.89
2022-10-04T02:06:55.184Z,99094.95
2022-10-04T02:09:31.994Z,99090.73
2022-10-04T02:12:01.703Z,99091.77
2022-10-04T02:14:34.898Z,99090.87
2022-10-04T02:17:10.595Z,99090.95
2022-10-04T02:19:42.585Z,99091.91
2022-10-04T02:22:11.750Z,99093.86
2022-10-04T02:24:45.202Z,99090.52
2022-10-04T02:27:15.105Z,99090.73
2022-10-04T02:29:43.382Z,99090.30
2022-10-04T02:32:33.327Z,99089.08
2022-10-04T02:35:04.282Z,99090.65
2022-10-04T02:37:32.747Z,99087.60
2022-10-04T02:40:14.231Z,99089.66
2022-10-04T02:43:00.637Z,99089.40
2022-10-04T02:45:38.410Z,99092.95
2022-10-04T02:48:31.487Z,99099.13
2022-10-04T02:51:16.909Z,99093.77
2022-10-04T02:54:21.425Z,99093.23
2022-10-04T02:56:54.535Z,99098.56
2022-10-04T02:59:22.941Z,99099.21
2022-10-04T03:01:55.460Z,99096.14
2022-10-04T03:04:28.033Z,99099.27
2022-10-04T03:06:59.382Z,99097.34
2022-10-04T03:09:30.033Z,99096.98
2022-10-04T03:11:59.562Z,99096.78
2022-10-04T03:14:29.501Z,99095.27
2022-10-04T03:17:04.264Z,99097.12
2022-10-04T03:19:35.121Z,99096.20
2022-10-04T03:22:08.788Z,99096.23
2022-10-04T03:24:43.889Z,99095.60
2022-10-04T03:27:22.674Z,99097.95
2022-10-04T03:29:53.570Z,99094.92
2022-10-04T03:32:26.387Z,99096.88
2022-10-04T03:35:04.092Z,99097.05
2022-10-04T03:37:37.259Z,99098.70
2022-10-04T03:40:09.822Z,99104.68
2022-10-04T03:42:39.862Z,99110.27
2022-10-04T03:45:15.886Z,99115.47
2022-10-04T03:47:48.780Z,99111.35
2022-10-04T03:50:19.537Z,99110.63
2022-10-04T03:52:54.102Z,99108.27
2022-10-04T03:55:31.636Z,99109.05
2022-10-04T03:58:01.665Z,99110.57
2022-10-04T04:00:30.447Z,99109.27
2022-10-04T04:03:03.974Z,99108.24
2022-10-04T04:05:40.607Z,99107.98
2022-10-04T04:08:14.913Z,99115.83
2022-10-04T04:10:47.898Z,99115.27
2022-10-04T04:13:46.511Z,99120.94
2022-10-04T04:16:15.483Z,99120.70
2022-10-04T04:18:46.461Z,99119.56
2022-10-04T04:21:19.382Z,99120.38
2022-10-04T04:23:54.071Z,99118.92
2022-10-04T04:26:37.531Z,99122.03
2022-10-04T04:29:25.254Z,99123.80
2022-10-04T04:32:00.203Z,99121.27
2022-10-04T04:34:31.164Z,99119.20
2022-10-04T04:37:01.974Z,99122.23
2022-10-04T04:39:40.214Z,99118.56
2022-10-04T04:42:21.468Z,99124.09
2022-10-04T04:45:26.028Z,99122.52
2022-10-04T04:47:57.558Z,99128.55
2022-10-04T04:50:38.068Z,99129.77
2022-10-04T04:53:16.666Z,99137.87
2022-10-04T04:56:03.504Z,99138.58
2022-10-04T04:58:37.191Z,99150.08
2022-10-04T05:01:26.971Z,99151.39
2022-10-04T05:04:12.758Z,99153.61
2022-10-04T05:06:47.559Z,99153.03
2022-10-04T05:09:31.328Z,99154.61
2022-10-04T05:12:08.785Z,99158.60
2022-10-04T05:14:47.747Z,99158.30
2022-10-04T05:17:35.573Z,99160.63
2022-10-04T05:20:05.610Z,99167.93
2022-10-04T05:22:36.433Z,99171.02
2022-10-04T05:25:15.744Z,99173.55
2022-10-04T05:27:45.350Z,99177.42
2022-10-04T05:30:32.180Z,99182.98
2022-10-04T05:33:07.741Z,99183.88
2022-10-04T05:36:02.118Z,99187.34
2022-10-04T05:39:03.128Z,99190.56
2022-10-04T05:42:01.719Z,99192.96
2022-10-04T05:44:38.641Z,99196.08
2022-10-04T05:47:14.606Z,99199.38
2022-10-04T05:49:46.815Z,99199.36
2022-10-04T05:52:36.296Z,99208.02
2022-10-04T05:55:22.858Z,99207.59
2022-10-04T05:58:28.034Z,99213.21
2022-10-04T06:01:11.200Z,99222.42
2022-10-04T06:03:58.973Z,99219.73
2022-10-04T06:06:51.710Z,99220.63
2022-10-04T06:09:53.548Z,99219.15
2022-10-04T06:12:58.515Z,99226.65
2022-10-04T06:16:20.664Z,99232.05
2022-10-04T06:19:15.166Z,99234.88
2022-10-04T06:21:52.451Z,99235.60
2022-10-04T06:24:29.919Z,99237.75
2022-10-04T06:27:07.386Z,99235.27
2022-10-04T06:29:41.478Z,99241.03
2022-10-04T06:32:47.001Z,99239.20
2022-10-04T06:35:21.280Z,99243.47
2022-10-04T06:38:08.897Z,99246.59
2022-10-04T06:40:58.923Z,99247.46
2022-10-04T06:43:35.047Z,99253.78
2022-10-04T06:46:05.932Z,99256.91
2022-10-04T06:48:43.456Z,99257.90
2022-10-04T06:51:16.525Z,99258.33
2022-10-04T06:54:32.522Z,99261.88
2022-10-04T06:57:45.561Z,99263.48
2022-10-04T07:00:30.062Z,99271.92
2022-10-04T07:03:24.709Z,99276.04
2022-10-04T07:06:01.455Z,99280.66
2022-10-04T07:09:08.385Z,99287.29
2022-10-04T07:11:56.479Z,99289.55
2022-10-04T07:14:43.718Z,99293.40
2022-10-04T07:17:19.750Z,99301.33
2022-10-04T07:19:50.105Z,99304.04
2022-10-04T07:22:43.460Z,99304.64
2022-10-04T07:25:45.837Z,99308.61
2022-10-04T07:28:39.202Z,99312.29
2022-10-04T07:31:35.628Z,99315.54
2022-10-04T07:34:15.957Z,99319.25
2022-10-04T07:36:49.525Z,99317.77
2022-10-04T07:39:32.189Z,99319.02
2022-10-04T07:42:19.627Z,99322.23
2022-10-04T07:45:00.409Z,99323.20
2022-10-04T07:47:30.289Z,99324.08
2022-10-04T07:49:58.673Z,99326.86
2022-10-04T07:52:49.179Z,99329.54
2022-10-04T07:55:28.908Z,99334.89
2022-10-04T07:58:10.807Z,99339.80
2022-10-04T08:01:01.487Z,99341.65
2022-10-04T08:03:52.210Z,99346.69
2022-10-04T08:07:00.747Z,99348.89
2022-10-04T08:09:55.441Z,99342.37
2022-10-04T08:12:39.082Z,99347.77
2022-10-04T08:15:40.199Z,99345.25
2022-10-04T08:18:29.629Z,99352.21
2022-10-04T08:21:15.374Z,99356.67
2022-10-04T08:24:06.915Z,99359.18
2022-10-04T08:27:03.479Z,99358.50
2022-10-04T08:30:26.569Z,99360.36
2022-10-04T08:33:12.487Z,99360.96
2022-10-04T08:35:59.843Z,99370.42
2022-10-04T08:38:43.213Z,99375.06
2022-10-04T08:41:24.534Z,99376.30
2022-10-04T08:44:41.817Z,99382.42
2022-10-04T08:47:25.730Z,99381.33
2022-10-04T08:50:20.746Z,99384.17
2022-10-04T08:53:11.264Z,99380.11
2022-10-04T08:56:17.950Z,99379.77
2022-10-04T08:59:14.980Z,99391.11
2022-10-04T09:01:58.410Z,99394.77
2022-10-04T09:05:00.808Z,99397.52
2022-10-04T09:08:18.861Z,99397.17
2022-10-04T09:11:27.227Z,99405.24
2022-10-04T09:14:17.558Z,99409.80
2022-10-04T09:16:48.812Z,99411.70
2022-10-04T09:19:26.034Z,99413.31
2022-10-04T09:21:57.638Z,99413.76
2022-10-04T09:24:34.856Z,99418.42
2022-10-04T09:27:26.839Z,99419.70
2022-10-04T09:30:21.655Z,99426.64
2022-10-04T09:33:15.595Z,99428.16
2022-10-04T09:36:06.659Z,99428.40
2022-10-04T09:39:06.141Z,99432.13
2022-10-04T09:42:04.214Z,99432.73
2022-10-04T09:45:06.232Z,99430.45
2022-10-04T09:47:41.642Z,99435.16
2022-10-04T09:50:48.306Z,99437.00
2022-10-04T09:53:28.696Z,99440.52
2022-10-04T09:56:27.143Z,99441.66
2022-10-04T09:59:08.843Z,99444.45
2022-10-04T10:01:46.087Z,99441.96
2022-10-04T10:04:23.449Z,99447.20
2022-10-04T10:06:51.733Z,99447.27
2022-10-04T10:10:13.552Z,99448.52
2022-10-04T10:13:38.335Z,99445.20
2022-10-04T10:16:21.499Z,99445.98
2022-10-04T10:19:23.955Z,99445.47
2022-10-04T10:21:55.673Z,99450.20
2022-10-04T10:24:45.341Z,99455.89
2022-10-04T10:27:39.574Z,99455.26
2022-10-04T10:30:25.128Z,99453.27
2022-10-04T10:32:56.113Z,99454.89
2022-10-04T10:35:25.135Z,99458.15
2022-10-04T10:38:04.272Z,99459.20
2022-10-04T10:40:53.646Z,99465.26
2022-10-04T10:43:42.956Z,99466.58
2022-10-04T10:46:31.627Z,99469.77
2022-10-04T10:49:22.128Z,99470.11
2022-10-04T10:52:25.893Z,99473.78
2022-10-04T10:55:31.653Z,99476.17
2022-10-04T10:57:59.881Z,99474.91
2022-10-04T11:00:50.504Z,99477.00
2022-10-04T11:03:32.252Z,99478.33
2022-10-04T11:06:39.694Z,99478.27
2022-10-04T11:09:28.979Z,99483.27
2022-10-04T11:12:18.922Z,99477.83
2022-10-04T11:15:13.642Z,99487.66
2022-10-04T11:17:57.386Z,99486.71
2022-10-04T11:20:54.571Z,99488.71
2022-10-04T11:23:55.197Z,99488.73
2022-10-04T11:26:48.199Z,99486.28
2022-10-04T11:29:16.682Z,99489.66
2022-10-04T11:32:00.003Z,99489.45
2022-10-04T11:34:47.256Z,99485.45
2022-10-04T11:37:36.242Z,99490.42
2022-10-04T11:40:18.051Z,99491.37
2022-10-04T11:43:01.542Z,99486.52
2022-10-04T11:45:44.978Z,99486.05
2022-10-04T11:48:22.914Z,99490.48
2022-10-04T11:50:56.877Z,99496.94
2022-10-04T11:53:44.096Z,99500.91
2022-10-04T11:56:19.835Z,99507.28
2022-10-04T11:59:06.351Z,99510.09
2022-10-04T12:02:00.134Z,99510.40
2022-10-04T12:04:57.493Z,99516.80
2022-10-04T12:07:37.936Z,99509.70
2022-10-04T12:10:29.953Z,99517.48
2022-10-04T12:13:38.178Z,99519.84
2022-10-04T12:16:30.115Z,99519.91
2022-10-04T12:19:40.719Z,99515.59
2022-10-04T12:22:08.900Z,99514.52
2022-10-04T12:25:22.334Z,99515.11
2022-10-04T12:28:12.608Z,99513.67
2022-10-04T12:30:54.159Z,99513.77
2022-10-04T12:33:43.070Z,99517.02
2022-10-04T12:36:31.475Z,99515.60
2022-10-04T12:39:14.949Z,99522.13
2022-10-04T12:42:07.947Z,99519.70
2022-10-04T12:44:57.870Z,99522.68
2022-10-04T12:47:45.262Z,99521.68
2022-10-04T12:50:43.752Z,99522.22
2022-10-04T12:53:16.763Z,99530.66
2022-10-04T12:56:03.482Z,99533.42
2022-10-04T12:58:37.755Z,99534.52
2022-10-04T13:01:47.742Z,99531.45
2022-10-04T13:04:30.230Z,99529.77
2022-10-04T13:07:27.592Z,99531.84
2022-10-04T13:10:24.506Z,99533.81
2022-10-04T13:13:38.802Z,99539.69
2022-10-04T13:19:23.089Z,99548.69
2022-10-04T13:21:51.219Z,99551.36
2022-10-04T13:24:52.886Z,99550.73
2022-10-04T13:27:33.848Z,99553.11
2022-10-04T13:30:17.014Z,99553.86
2022-10-04T13:32:55.305Z,99549.31
2022-10-04T13:35:41.393Z,99556.78
2022-10-04T13:38:35.985Z,99553.41
2022-10-04T13:41:13.151Z,99552.05
2022-10-04T13:43:58.327Z,99556.82
2022-10-04T13:46:44.883Z,99563.48
2022-10-04T13:49:42.746Z,99566.49
2022-10-04T13:52:55.742Z,99578.48
2022-10-04T13:55:54.547Z,99575.06
2022-10-04T13:58:22.785Z,99577.66
2022-10-04T14:01:22.462Z,99574.58
2022-10-04T14:03:56.735Z,99577.95
2022-10-04T14:06:24.954Z,99581.12
2022-10-04T14:08:54.007Z,99580.08
2022-10-04T14:12:04.026Z,99581.46
2022-10-04T14:14:44.030Z,99577.05
2022-10-04T14:17:34.216Z,99579.55
2022-10-04T14:20:24.903Z,99577.77
2022-10-04T14:23:20.332Z,99580.55
2022-10-04T14:26:00.451Z,99581.98
2022-10-04T14:28:53.725Z,99586.23
2022-10-04T14:32:20.661Z,99585.80
2022-10-04T14:35:14.600Z,99589.05
2022-10-04T14:38:01.965Z,99594.13
2022-10-04T14:40:45.287Z,99595.02
2022-10-04T14:43:41.124Z,99594.52
2022-10-04T14:46:43.398Z,99594.14
2022-10-04T14:49:31.140Z,99594.73
2022-10-04T14:52:36.349Z,99596.48
2022-10-04T14:55:33.637Z,99602.11
2022-10-04T14:58:12.282Z,99601.40
2022-10-04T15:01:06.491Z,99609.48
2022-10-04T15:03:52.866Z,99608.86
2022-10-04T15:06:24.012Z,99611.01
2022-10-04T15:09:11.957Z,99615.58
2022-10-04T15:12:21.603Z,99617.42
2022-10-04T15:15:03.360Z,99617.26
2022-10-04T15:17:37.919Z,99620.46
2022-10-04T15:20:44.381Z,99626.73
2022-10-04T15:23:12.732Z,99628.27
2022-10-04T15:25:43.255Z,99633.66
2022-10-04T15:28:17.608Z,99632.41
2022-10-04T15:31:11.084Z,99634.77
2022-10-04T15:33:55.929Z,99639.48
2022-10-04T15:36:46.162Z,99639.03
2022-10-04T15:39:33.578Z,99640.45
2022-10-04T15:42:16.328Z,99641.00
2022-10-04T15:45:00.375Z,99644.48
2022-10-04T15:47:57.601Z,99652.48
2022-10-04T15:50:58.164Z,99657.30
2022-10-04T15:53:26.381Z,99662.40
2022-10-04T15:56:13.898Z,99669.15
2022-10-04T15:59:20.617Z,99672.65
2022-10-04T16:02:00.447Z,99670.88
2022-10-04T16:04:34.478Z,99679.14
2022-10-04T16:07:32.394Z,99681.22
2022-10-04T16:10:13.437Z,99684.09
2022-10-04T16:12:48.549Z,99685.29
2022-10-04T16:15:36.476Z,99685.08
2022-10-04T16:18:31.017Z,99688.19
2022-10-04T16:21:12.958Z,99686.92
2022-10-04T16:23:44.466Z,99689.73
2022-10-04T16:26:33.992Z,99685.13
2022-10-04T16:29:11.930Z,99686.09
2022-10-04T16:32:11.476Z,99689.39
2022-10-04T16:34:43.289Z,99690.77
2022-10-04T16:37:14.293Z,99691.25
2022-10-04T16:40:00.954Z,99696.58
2022-10-04T16:42:44.768Z,99700.02
2022-10-04T16:45:43.621Z,99704.67
2022-10-04T16:48:20.957Z,99704.73
2022-10-04T16:51:04.422Z,99708.89
2022-10-04T16:54:10.243Z,99712.45
2022-10-04T16:57:01.036Z,99715.42
2022-10-04T16:59:38.836Z,99719.45
2022-10-04T17:02:46.340Z,99721.39
2022-10-04T17:05:22.853Z,99722.48
2022-10-04T17:07:56.889Z,99725.50
2022-10-04T17:10:45.091Z,99731.48
2022-10-04T17:13:23.593Z,99731.20
2022-10-04T17:16:00.949Z,99733.99
2022-10-04T17:19:07.514Z,99735.63
2022-10-04T17:22:07.068Z,99741.92
2022-10-04T17:25:01.404Z,99742.01
2022-10-04T17:27:58.057Z,99750.13
2022-10-04T17:30:43.182Z,99753.48
2022-10-04T17:33:30.664Z,99757.38
2022-10-04T17:36:07.715Z,99752.30
2022-10-04T17:38:36.342Z,99751.09
2022-10-04T17:41:42.452Z,99756.63
2022-10-04T17:44:19.617Z,99760.38
2022-10-04T17:47:14.290Z,99760.64
2022-10-04T17:50:14.530Z,99765.27
2022-10-04T17:53:07.728Z,99768.70
2022-10-04T17:55:57.358Z,99768.04
2022-10-04T17:58:54.135Z,99772.19
2022-10-04T18:01:47.055Z,99781.90
2022-10-04T18:04:24.017Z,99785.48
2022-10-04T18:07:04.410Z,99787.11
2022-10-04T18:09:41.498Z,99789.47
2022-10-04T18:12:30.467Z,99789.72
2022-10-04T18:15:22.257Z,99791.65
2022-10-04T18:17:51.394Z,99803.28
2022-10-04T18:20:34.193Z,99806.98
2022-10-04T18:23:39.698Z,99807.40
2022-10-04T18:26:18.635Z,99809.30
2022-10-04T18:28:49.318Z,99809.95
2022-10-04T18:31:39.404Z,99815.88
2022-10-04T18:34:18.363Z,99825.05
2022-10-04T18:37:06.478Z,99822.91
2022-10-04T18:39:48.750Z,99823.77
2022-10-04T18:42:29.121Z,99824.39
2022-10-04T18:45:19.987Z,99824.55
2022-10-04T18:47:52.380Z,99823.01
2022-10-04T18:50:20.575Z,99831.00
2022-10-04T18:53:13.811Z,99827.04
2022-10-04T18:56:07.418Z,99830.04
2022-10-04T18:59:12.710Z,99827.92
2022-10-04T19:02:08.068Z,99827.27
2022-10-04T19:04:48.791Z,99834.85
2022-10-04T19:07:25.293Z,99837.24
2022-10-04T19:10:03.294Z,99838.04
2022-10-04T19:12:50.613Z,99837.60
2022-10-04T19:15:18.742Z,99834.60
2022-10-04T19:18:24.860Z,99832.93
2022-10-04T19:21:37.492Z,99839.83
2022-10-04T19:24:30.281Z,99844.05
2022-10-04T19:27:05.258Z,99847.31
2022-10-04T19:29:51.805Z,99849.27
2022-10-04T19:32:19.892Z,99856.64
2022-10-04T19:34:54.167Z,99858.58
2022-10-04T19:37:35.583Z,99863.30
2022-10-04T19:40:25.715Z,99863.34
2022-10-04T19:43:12.478Z,99866.98
2022-10-04T19:46:18.628Z,99869.50
2022-10-04T19:48:52.776Z,99873.63
2022-10-04T19:51:30.433Z,99874.77
2022-10-04T19:54:14.667Z,99873.41
2022-10-04T19:56:48.918Z,99875.95
2022-10-04T19:59:40.759Z,99873.36
2022-10-04T20:02:14.487Z,99871.55
2022-10-04T20:04:48.982Z,99874.66
2022-10-04T20:07:27.695Z,99877.77
2022-10-04T20:10:30.709Z,99875.60
2022-10-04T20:13:26.388Z,99881.16
2022-10-04T20:15:59.992Z,99881.46
2022-10-04T20:18:38.398Z,99883.55
2022-10-04T20:21:10.904Z,99886.48
2022-10-04T20:23:39.427Z,99890.92
2022-10-04T20:26:54.180Z,99890.63
2022-10-04T20:29:43.867Z,99897.77
2022-10-04T20:32:31.571Z,99897.34
2022-10-04T20:35:02.060Z,99896.70
2022-10-04T20:37:45.648Z,99901.67
2022-10-04T20:40:26.784Z,99902.23
2022-10-04T20:43:13.588Z,99898.42
2022-10-04T20:45:48.515Z,99902.53
2022-10-04T20:48:31.428Z,99906.13
2022-10-04T20:51:09.953Z,99906.10
2022-10-04T20:53:46.982Z,99907.46
2022-10-04T20:56:37.488Z,99908.40
2022-10-04T20:59:05.996Z,99911.58
2022-10-04T21:01:38.594Z,99912.82
2022-10-04T21:04:37.063Z,99914.95
2022-10-04T21:07:07.611Z,99916.45
2022-10-04T21:09:41.730Z,99917.43
2022-10-04T21:12:30.402Z,99922.55
2022-10-04T21:15:19.290Z,99926.67
2022-10-04T21:18:10.917Z,99926.35
2022-10-04T21:20:48.077Z,99931.85
2022-10-04T21:23:34.231Z,99932.00
2022-10-04T21:26:22.482Z,99932.48
2022-10-04T21:28:57.332Z,99937.38
2022-10-04T21:31:25.840Z,99935.22
2022-10-04T21:33:54.137Z,99937.38
2022-10-04T21:36:22.354Z,99936.23
2022-10-04T21:38:51.045Z,99938.08
2022-10-04T21:41:19.365Z,99937.96
2022-10-04T21:43:47.592Z,99938.71
2022-10-04T21:46:20.206Z,99941.14
2022-10-04T21:48:49.095Z,99942.09
2022-10-04T21:51:17.493Z,99948.57
2022-10-04T21:53:45.733Z,99953.33
2022-10-04T21:56:14.118Z,99952.61
2022-10-04T21:58:42.334Z,99958.02
2022-10-04T22:01:10.565Z,99958.31
2022-10-04T22:03:38.896Z,99955.45
2022-10-04T22:06:07.055Z,99956.41
2022-10-04T22:08:35.297Z,99951.59
2022-10-04T22:11:03.541Z,99952.38
2022-10-04T22:13:31.962Z,99952.85
2022-10-04T22:16:00.258Z,99955.95
2022-10-04T22:18:29.610Z,99957.09
2022-10-04T22:20:58.418Z,99962.45
2022-10-04T22:23:33.821Z,99966.05
2022-10-04T22:26:03.127Z,99972.30
2022-10-04T22:28:33.849Z,99973.83
2022-10-04T22:31:02.239Z,99976.27
2022-10-04T22:33:39.455Z,99972.52
2022-10-04T22:36:13.896Z,99974.40
2022-10-04T22:38:45.997Z,99972.95
2022-10-04T22:41:18.901Z,99973.88
2022-10-04T22:43:49.253Z,99975.90
2022-10-04T22:46:20.347Z,99974.33
2022-10-04T22:48:49.606Z,99977.12
2022-10-04T22:51:17.883Z,99977.69
2022-10-04T22:53:48.188Z,99974.39
2022-10-04T22:56:16.796Z,99969.93
2022-10-04T22:58:45.253Z,99966.07
2022-10-04T23:01:16.818Z,99960.35
2022-10-04T23:03:47.631Z,99955.63
2022-10-04T23:06:16.681Z,99949.45
2022-10-04T23:08:45.049Z,99947.23
2022-10-04T23:11:13.414Z,99942.38
2022-10-04T23:13:41.705Z,99946.63
2022-10-04T23:16:23.614Z,99937.89
2022-10-04T23:19:00.754Z,99934.91
2022-10-04T23:21:33.829Z,99930.25
2022-10-04T23:24:17.892Z,99931.80
2022-10-04T23:26:49.640Z,99925.81
2022-10-04T23:29:23.441Z,99924.23
2022-10-04T23:31:52.931Z,99925.44
2022-10-04T23:34:33.622Z,99926.02
2022-10-04T23:37:03.422Z,99930.80
2022-10-04T23:39:35.033Z,99938.63
2022-10-04T23:42:13.701Z,99949.79
2022-10-04T23:44:42.381Z,99950.17
2022-10-04T23:47:16.206Z,99957.94
2022-10-04T23:49:49.774Z,99958.02
2022-10-04T23:52:37.450Z,99962.92
2022-10-04T23:55:36.332Z,99962.90
2022-10-04T23:58:17.181Z,99964.34
